sensor_id;sensor_type;location;lat;lon;timestamp;temperature;humidity
17370;DHT22;8802;52.402;4.920;2022-10-23T00:00:14;16.80;95.90
17370;DHT22;8802;52.402;4.920;2022-10-23T00:02:41;16.80;95.90
17370;DHT22;8802;52.402;4.920;2022-10-23T00:05:08;16.80;95.90
17370;DHT22;8802;52.402;4.920;2022-10-23T00:07:36;16.80;95.90
17370;DHT22;8802;52.402;4.920;2022-10-23T00:10:03;16.80;96.00
17370;DHT22;8802;52.402;4.920;2022-10-23T00:12:30;16.70;95.90
17370;DHT22;8802;52.402;4.920;2022-10-23T00:14:57;16.70;96.00
17370;DHT22;8802;52.402;4.920;2022-10-23T00:17:24;16.70;96.00
17370;DHT22;8802;52.402;4.920;2022-10-23T00:19:51;16.80;96.10
17370;DHT22;8802;52.402;4.920;2022-10-23T00:22:18;16.70;96.10
17370;DHT22;8802;52.402;4.920;2022-10-23T00:24:46;16.70;96.10
17370;DHT22;8802;52.402;4.920;2022-10-23T00:27:12;16.70;96.50
17370;DHT22;8802;52.402;4.920;2022-10-23T00:29:39;16.70;96.10
17370;DHT22;8802;52.402;4.920;2022-10-23T00:32:06;16.70;96.10
17370;DHT22;8802;52.402;4.920;2022-10-23T00:34:33;16.70;96.10
17370;DHT22;8802;52.402;4.920;2022-10-23T00:37:00;16.70;96.50
17370;DHT22;8802;52.402;4.920;2022-10-23T00:39:26;16.70;96.10
17370;DHT22;8802;52.402;4.920;2022-10-23T00:41:55;16.70;96.20
17370;DHT22;8802;52.402;4.920;2022-10-23T00:47:49;16.70;96.30
17370;DHT22;8802;52.402;4.920;2022-10-23T00:50:16;16.70;96.20
17370;DHT22;8802;52.402;4.920;2022-10-23T00:52:46;16.70;96.20
17370;DHT22;8802;52.402;4.920;2022-10-23T00:55:14;16.70;96.30
17370;DHT22;8802;52.402;4.920;2022-10-23T00:57:44;16.70;96.30
17370;DHT22;8802;52.402;4.920;2022-10-23T01:00:16;16.70;96.30
17370;DHT22;8802;52.402;4.920;2022-10-23T01:02:43;16.70;96.30
17370;DHT22;8802;52.402;4.920;2022-10-23T01:05:10;16.70;96.30
17370;DHT22;8802;52.402;4.920;2022-10-23T01:07:42;16.70;96.40
17370;DHT22;8802;52.402;4.920;2022-10-23T01:10:14;16.70;96.30
17370;DHT22;8802;52.402;4.920;2022-10-23T01:12:48;16.70;96.30
17370;DHT22;8802;52.402;4.920;2022-10-23T01:15:19;16.70;96.40
17370;DHT22;8802;52.402;4.920;2022-10-23T01:17:51;16.70;96.40
17370;DHT22;8802;52.402;4.920;2022-10-23T01:20:29;16.70;96.40
17370;DHT22;8802;52.402;4.920;2022-10-23T01:23:16;16.70;96.40
17370;DHT22;8802;52.402;4.920;2022-10-23T01:26:22;16.70;96.40
17370;DHT22;8802;52.402;4.920;2022-10-23T01:28:57;16.70;96.40
17370;DHT22;8802;52.402;4.920;2022-10-23T01:31:41;16.70;96.40
17370;DHT22;8802;52.402;4.920;2022-10-23T01:34:14;16.70;96.40
17370;DHT22;8802;52.402;4.920;2022-10-23T01:36:45;16.70;96.40
17370;DHT22;8802;52.402;4.920;2022-10-23T01:39:18;16.60;96.40
17370;DHT22;8802;52.402;4.920;2022-10-23T01:41:50;16.80;96.40
17370;DHT22;8802;52.402;4.920;2022-10-23T01:44:24;16.60;96.40
17370;DHT22;8802;52.402;4.920;2022-10-23T01:46:53;16.60;96.40
17370;DHT22;8802;52.402;4.920;2022-10-23T01:49:21;16.60;96.40
17370;DHT22;8802;52.402;4.920;2022-10-23T01:51:51;16.60;96.40
17370;DHT22;8802;52.402;4.920;2022-10-23T01:54:20;16.60;96.40
17370;DHT22;8802;52.402;4.920;2022-10-23T01:56:49;16.60;96.50
17370;DHT22;8802;52.402;4.920;2022-10-23T01:59:21;16.60;96.50
17370;DHT22;8802;52.402;4.920;2022-10-23T02:01:50;16.60;96.50
17370;DHT22;8802;52.402;4.920;2022-10-23T02:04:23;16.60;96.50
17370;DHT22;8802;52.402;4.920;2022-10-23T02:06:51;16.60;96.60
17370;DHT22;8802;52.402;4.920;2022-10-23T02:09:18;16.60;96.60
17370;DHT22;8802;52.402;4.920;2022-10-23T02:11:51;16.60;96.60
17370;DHT22;8802;52.402;4.920;2022-10-23T02:14:28;16.60;96.60
17370;DHT22;8802;52.402;4.920;2022-10-23T02:17:04;16.60;96.60
17370;DHT22;8802;52.402;4.920;2022-10-23T02:19:42;16.60;96.60
17370;DHT22;8802;52.402;4.920;2022-10-23T02:22:12;16.60;96.60
17370;DHT22;8802;52.402;4.920;2022-10-23T02:24:44;16.60;96.60
17370;DHT22;8802;52.402;4.920;2022-10-23T02:27:15;16.60;96.60
17370;DHT22;8802;52.402;4.920;2022-10-23T02:29:47;16.60;96.60
17370;DHT22;8802;52.402;4.920;2022-10-23T02:32:18;16.60;96.60
17370;DHT22;8802;52.402;4.920;2022-10-23T02:34:46;16.60;96.60
17370;DHT22;8802;52.402;4.920;2022-10-23T02:37:13;16.60;96.60
17370;DHT22;8802;52.402;4.920;2022-10-23T02:39:40;16.60;96.60
17370;DHT22;8802;52.402;4.920;2022-10-23T02:42:10;16.60;96.60
17370;DHT22;8802;52.402;4.920;2022-10-23T02:44:48;16.60;96.60
17370;DHT22;8802;52.402;4.920;2022-10-23T02:47:34;16.60;96.60
17370;DHT22;8802;52.402;4.920;2022-10-23T02:50:09;16.60;96.60
17370;DHT22;8802;52.402;4.920;2022-10-23T02:52:44;16.60;96.60
17370;DHT22;8802;52.402;4.920;2022-10-23T02:55:21;16.60;96.60
17370;DHT22;8802;52.402;4.920;2022-10-23T02:57:55;16.60;96.60
17370;DHT22;8802;52.402;4.920;2022-10-23T03:00:23;16.60;96.50
17370;DHT22;8802;52.402;4.920;2022-10-23T03:02:55;16.60;96.50
17370;DHT22;8802;52.402;4.920;2022-10-23T03:05:25;16.60;96.60
17370;DHT22;8802;52.402;4.920;2022-10-23T03:07:53;16.60;97.00
17370;DHT22;8802;52.402;4.920;2022-10-23T03:10:20;16.50;96.50
17370;DHT22;8802;52.402;4.920;2022-10-23T03:12:47;16.60;96.50
17370;DHT22;8802;52.402;4.920;2022-10-23T03:15:15;16.50;96.50
17370;DHT22;8802;52.402;4.920;2022-10-23T03:17:43;16.50;96.50
17370;DHT22;8802;52.402;4.920;2022-10-23T03:20:10;16.50;96.50
17370;DHT22;8802;52.402;4.920;2022-10-23T03:22:38;16.50;96.50
17370;DHT22;8802;52.402;4.920;2022-10-23T03:25:05;16.50;96.50
17370;DHT22;8802;52.402;4.920;2022-10-23T03:27:32;16.50;96.50
17370;DHT22;8802;52.402;4.920;2022-10-23T03:30:00;16.50;96.50
17370;DHT22;8802;52.402;4.920;2022-10-23T03:32:26;16.50;96.50
17370;DHT22;8802;52.402;4.920;2022-10-23T03:34:55;16.50;96.60
17370;DHT22;8802;52.402;4.920;2022-10-23T03:37:22;16.40;96.50
17370;DHT22;8802;52.402;4.920;2022-10-23T03:39:49;16.40;96.50
17370;DHT22;8802;52.402;4.920;2022-10-23T03:42:16;16.40;96.50
17370;DHT22;8802;52.402;4.920;2022-10-23T03:44:43;16.40;96.50
17370;DHT22;8802;52.402;4.920;2022-10-23T03:47:10;16.40;96.60
17370;DHT22;8802;52.402;4.920;2022-10-23T03:49:37;16.40;96.60
17370;DHT22;8802;52.402;4.920;2022-10-23T03:52:06;16.40;96.60
17370;DHT22;8802;52.402;4.920;2022-10-23T03:54:33;16.40;96.60
17370;DHT22;8802;52.402;4.920;2022-10-23T03:57:01;16.40;96.60
17370;DHT22;8802;52.402;4.920;2022-10-23T03:59:28;16.40;96.60
17370;DHT22;8802;52.402;4.920;2022-10-23T04:01:55;16.30;96.60
17370;DHT22;8802;52.402;4.920;2022-10-23T04:04:21;16.40;96.60
17370;DHT22;8802;52.402;4.920;2022-10-23T04:06:48;16.30;96.60
17370;DHT22;8802;52.402;4.920;2022-10-23T04:09:16;16.30;96.70
17370;DHT22;8802;52.402;4.920;2022-10-23T04:11:43;16.30;96.70
17370;DHT22;8802;52.402;4.920;2022-10-23T04:14:11;16.30;96.70
17370;DHT22;8802;52.402;4.920;2022-10-23T04:16:38;16.30;96.70
17370;DHT22;8802;52.402;4.920;2022-10-23T04:19:05;16.30;96.70
17370;DHT22;8802;52.402;4.920;2022-10-23T04:21:32;16.30;96.70
17370;DHT22;8802;52.402;4.920;2022-10-23T04:23:59;16.30;96.70
17370;DHT22;8802;52.402;4.920;2022-10-23T04:26:27;16.30;96.70
17370;DHT22;8802;52.402;4.920;2022-10-23T04:28:54;16.30;96.70
17370;DHT22;8802;52.402;4.920;2022-10-23T04:31:21;16.30;96.80
17370;DHT22;8802;52.402;4.920;2022-10-23T04:33:48;16.30;96.80
17370;DHT22;8802;52.402;4.920;2022-10-23T04:36:14;16.30;96.80
17370;DHT22;8802;52.402;4.920;2022-10-23T04:38:41;16.30;96.80
17370;DHT22;8802;52.402;4.920;2022-10-23T04:41:08;16.20;96.80
17370;DHT22;8802;52.402;4.920;2022-10-23T04:43:36;16.20;96.80
17370;DHT22;8802;52.402;4.920;2022-10-23T04:46:03;16.20;96.80
17370;DHT22;8802;52.402;4.920;2022-10-23T04:48:30;16.20;96.80
17370;DHT22;8802;52.402;4.920;2022-10-23T04:50:59;16.20;96.80
17370;DHT22;8802;52.402;4.920;2022-10-23T04:53:26;16.20;96.80
17370;DHT22;8802;52.402;4.920;2022-10-23T04:55:55;16.20;96.80
17370;DHT22;8802;52.402;4.920;2022-10-23T04:58:23;16.20;96.90
17370;DHT22;8802;52.402;4.920;2022-10-23T05:00:51;16.20;96.80
17370;DHT22;8802;52.402;4.920;2022-10-23T05:03:19;16.20;96.80
17370;DHT22;8802;52.402;4.920;2022-10-23T05:05:47;16.20;96.80
17370;DHT22;8802;52.402;4.920;2022-10-23T05:08:14;16.20;96.80
17370;DHT22;8802;52.402;4.920;2022-10-23T05:10:40;16.20;96.90
17370;DHT22;8802;52.402;4.920;2022-10-23T05:13:07;16.20;96.90
17370;DHT22;8802;52.402;4.920;2022-10-23T05:15:34;16.20;96.90
17370;DHT22;8802;52.402;4.920;2022-10-23T05:18:08;16.20;96.90
17370;DHT22;8802;52.402;4.920;2022-10-23T05:20:36;16.20;97.00
17370;DHT22;8802;52.402;4.920;2022-10-23T05:23:06;16.30;97.00
17370;DHT22;8802;52.402;4.920;2022-10-23T05:25:34;16.20;97.00
17370;DHT22;8802;52.402;4.920;2022-10-23T05:28:01;16.20;97.00
17370;DHT22;8802;52.402;4.920;2022-10-23T05:30:28;16.20;97.10
17370;DHT22;8802;52.402;4.920;2022-10-23T05:32:58;16.20;97.00
17370;DHT22;8802;52.402;4.920;2022-10-23T05:35:28;16.30;97.10
17370;DHT22;8802;52.402;4.920;2022-10-23T05:37:56;16.20;97.00
17370;DHT22;8802;52.402;4.920;2022-10-23T05:40:24;16.30;97.10
17370;DHT22;8802;52.402;4.920;2022-10-23T05:42:51;16.30;97.10
17370;DHT22;8802;52.402;4.920;2022-10-23T05:45:18;16.30;97.00
17370;DHT22;8802;52.402;4.920;2022-10-23T05:47:45;16.30;97.00
17370;DHT22;8802;52.402;4.920;2022-10-23T05:50:13;16.30;97.10
17370;DHT22;8802;52.402;4.920;2022-10-23T05:52:45;16.30;97.10
17370;DHT22;8802;52.402;4.920;2022-10-23T05:55:12;16.30;97.10
17370;DHT22;8802;52.402;4.920;2022-10-23T05:57:38;16.30;97.10
17370;DHT22;8802;52.402;4.920;2022-10-23T06:00:06;16.30;97.10
17370;DHT22;8802;52.402;4.920;2022-10-23T06:02:34;16.30;97.10
17370;DHT22;8802;52.402;4.920;2022-10-23T06:05:00;16.30;97.10
17370;DHT22;8802;52.402;4.920;2022-10-23T06:07:28;16.30;97.10
17370;DHT22;8802;52.402;4.920;2022-10-23T06:09:57;16.30;97.10
17370;DHT22;8802;52.402;4.920;2022-10-23T06:12:24;16.30;97.10
17370;DHT22;8802;52.402;4.920;2022-10-23T06:14:50;16.30;97.10
17370;DHT22;8802;52.402;4.920;2022-10-23T06:17:17;16.30;97.10
17370;DHT22;8802;52.402;4.920;2022-10-23T06:19:44;16.30;97.10
17370;DHT22;8802;52.402;4.920;2022-10-23T06:22:11;16.30;97.10
17370;DHT22;8802;52.402;4.920;2022-10-23T06:24:38;16.30;97.20
17370;DHT22;8802;52.402;4.920;2022-10-23T06:27:06;16.30;97.10
17370;DHT22;8802;52.402;4.920;2022-10-23T06:29:33;16.30;97.10
17370;DHT22;8802;52.402;4.920;2022-10-23T06:31:59;16.30;97.10
17370;DHT22;8802;52.402;4.920;2022-10-23T06:34:26;16.30;97.10
17370;DHT22;8802;52.402;4.920;2022-10-23T06:36:53;16.40;97.20
17370;DHT22;8802;52.402;4.920;2022-10-23T06:39:20;16.40;97.20
17370;DHT22;8802;52.402;4.920;2022-10-23T06:41:47;16.40;97.20
17370;DHT22;8802;52.402;4.920;2022-10-23T06:44:15;16.40;97.10
17370;DHT22;8802;52.402;4.920;2022-10-23T06:46:42;16.40;97.10
17370;DHT22;8802;52.402;4.920;2022-10-23T06:49:12;16.50;97.20
17370;DHT22;8802;52.402;4.920;2022-10-23T06:51:40;16.40;97.10
17370;DHT22;8802;52.402;4.920;2022-10-23T06:54:07;16.40;97.20
17370;DHT22;8802;52.402;4.920;2022-10-23T06:56:34;16.40;97.10
17370;DHT22;8802;52.402;4.920;2022-10-23T06:59:01;16.40;97.20
17370;DHT22;8802;52.402;4.920;2022-10-23T07:01:29;16.40;97.20
17370;DHT22;8802;52.402;4.920;2022-10-23T07:03:56;16.50;97.20
17370;DHT22;8802;52.402;4.920;2022-10-23T07:06:23;16.40;97.20
17370;DHT22;8802;52.402;4.920;2022-10-23T07:08:49;16.50;97.20
17370;DHT22;8802;52.402;4.920;2022-10-23T07:11:17;16.40;97.20
17370;DHT22;8802;52.402;4.920;2022-10-23T07:13:44;16.50;97.30
17370;DHT22;8802;52.402;4.920;2022-10-23T07:16:13;16.50;97.30
17370;DHT22;8802;52.402;4.920;2022-10-23T07:18:41;16.50;97.30
17370;DHT22;8802;52.402;4.920;2022-10-23T07:21:09;16.50;97.30
17370;DHT22;8802;52.402;4.920;2022-10-23T07:23:35;16.60;97.30
17370;DHT22;8802;52.402;4.920;2022-10-23T07:26:04;16.60;97.30
17370;DHT22;8802;52.402;4.920;2022-10-23T07:28:31;16.60;97.30
17370;DHT22;8802;52.402;4.920;2022-10-23T07:30:59;16.60;97.40
17370;DHT22;8802;52.402;4.920;2022-10-23T07:33:26;16.60;97.30
17370;DHT22;8802;52.402;4.920;2022-10-23T07:35:54;16.60;97.30
17370;DHT22;8802;52.402;4.920;2022-10-23T07:38:21;16.70;97.40
17370;DHT22;8802;52.402;4.920;2022-10-23T07:40:48;16.70;97.40
17370;DHT22;8802;52.402;4.920;2022-10-23T07:43:15;16.70;97.40
17370;DHT22;8802;52.402;4.920;2022-10-23T07:45:45;16.70;97.40
17370;DHT22;8802;52.402;4.920;2022-10-23T07:48:11;16.70;97.40
17370;DHT22;8802;52.402;4.920;2022-10-23T07:50:38;16.70;97.40
17370;DHT22;8802;52.402;4.920;2022-10-23T07:53:07;16.80;97.40
17370;DHT22;8802;52.402;4.920;2022-10-23T07:55:35;16.80;97.40
17370;DHT22;8802;52.402;4.920;2022-10-23T07:58:02;16.80;97.40
17370;DHT22;8802;52.402;4.920;2022-10-23T08:00:29;16.80;97.40
17370;DHT22;8802;52.402;4.920;2022-10-23T08:02:55;16.80;97.40
17370;DHT22;8802;52.402;4.920;2022-10-23T08:05:22;16.90;97.40
17370;DHT22;8802;52.402;4.920;2022-10-23T08:07:49;16.90;97.40
17370;DHT22;8802;52.402;4.920;2022-10-23T08:10:17;16.90;97.40
17370;DHT22;8802;52.402;4.920;2022-10-23T08:12:44;16.90;97.40
17370;DHT22;8802;52.402;4.920;2022-10-23T08:15:11;16.90;97.40
17370;DHT22;8802;52.402;4.920;2022-10-23T08:17:37;17.00;97.40
17370;DHT22;8802;52.402;4.920;2022-10-23T08:20:05;17.00;97.40
17370;DHT22;8802;52.402;4.920;2022-10-23T08:22:32;17.00;97.40
17370;DHT22;8802;52.402;4.920;2022-10-23T08:25:01;17.00;97.40
17370;DHT22;8802;52.402;4.920;2022-10-23T08:27:29;17.10;97.40
17370;DHT22;8802;52.402;4.920;2022-10-23T08:29:56;17.10;97.40
17370;DHT22;8802;52.402;4.920;2022-10-23T08:32:23;17.10;97.30
17370;DHT22;8802;52.402;4.920;2022-10-23T08:34:50;17.20;97.30
17370;DHT22;8802;52.402;4.920;2022-10-23T08:37:16;17.20;97.30
17370;DHT22;8802;52.402;4.920;2022-10-23T08:39:43;17.20;97.30
17370;DHT22;8802;52.402;4.920;2022-10-23T08:42:19;17.20;97.30
17370;DHT22;8802;52.402;4.920;2022-10-23T08:44:55;17.30;97.30
17370;DHT22;8802;52.402;4.920;2022-10-23T08:47:27;17.30;97.20
17370;DHT22;8802;52.402;4.920;2022-10-23T08:49:57;17.30;97.20
17370;DHT22;8802;52.402;4.920;2022-10-23T08:52:30;17.40;97.20
17370;DHT22;8802;52.402;4.920;2022-10-23T08:55:04;17.40;97.60
17370;DHT22;8802;52.402;4.920;2022-10-23T08:57:34;17.40;97.20
17370;DHT22;8802;52.402;4.920;2022-10-23T09:00:06;17.40;97.10
17370;DHT22;8802;52.402;4.920;2022-10-23T09:02:38;17.40;97.10
17370;DHT22;8802;52.402;4.920;2022-10-23T09:05:12;17.50;97.10
17370;DHT22;8802;52.402;4.920;2022-10-23T09:07:44;17.50;97.10
17370;DHT22;8802;52.402;4.920;2022-10-23T09:10:30;17.50;97.00
17370;DHT22;8802;52.402;4.920;2022-10-23T09:13:02;17.50;97.00
17370;DHT22;8802;52.402;4.920;2022-10-23T09:15:39;17.60;97.00
17370;DHT22;8802;52.402;4.920;2022-10-23T09:18:12;17.60;97.00
17370;DHT22;8802;52.402;4.920;2022-10-23T09:20:40;17.60;96.90
17370;DHT22;8802;52.402;4.920;2022-10-23T09:23:14;17.60;97.00
17370;DHT22;8802;52.402;4.920;2022-10-23T09:25:43;17.60;96.90
17370;DHT22;8802;52.402;4.920;2022-10-23T09:28:17;17.70;96.90
17370;DHT22;8802;52.402;4.920;2022-10-23T09:30:47;17.70;97.00
17370;DHT22;8802;52.402;4.920;2022-10-23T09:33:16;17.70;96.90
17370;DHT22;8802;52.402;4.920;2022-10-23T09:35:56;17.70;96.80
17370;DHT22;8802;52.402;4.920;2022-10-23T09:38:33;17.70;96.80
17370;DHT22;8802;52.402;4.920;2022-10-23T09:41:03;17.70;96.80
17370;DHT22;8802;52.402;4.920;2022-10-23T09:43:32;17.80;96.80
17370;DHT22;8802;52.402;4.920;2022-10-23T09:46:01;17.80;96.80
17370;DHT22;8802;52.402;4.920;2022-10-23T09:48:29;17.80;96.80
17370;DHT22;8802;52.402;4.920;2022-10-23T09:50:58;17.80;96.80
17370;DHT22;8802;52.402;4.920;2022-10-23T09:53:30;17.90;96.80
17370;DHT22;8802;52.402;4.920;2022-10-23T09:55:59;17.90;96.80
17370;DHT22;8802;52.402;4.920;2022-10-23T09:58:31;17.90;96.70
17370;DHT22;8802;52.402;4.920;2022-10-23T10:01:00;18.00;96.70
17370;DHT22;8802;52.402;4.920;2022-10-23T10:03:27;18.00;96.70
17370;DHT22;8802;52.402;4.920;2022-10-23T10:05:57;18.00;96.70
17370;DHT22;8802;52.402;4.920;2022-10-23T10:08:35;18.00;96.60
17370;DHT22;8802;52.402;4.920;2022-10-23T10:11:11;18.10;96.70
17370;DHT22;8802;52.402;4.920;2022-10-23T10:16:41;18.10;96.60
17370;DHT22;8802;52.402;4.920;2022-10-23T10:19:16;18.10;96.70
17370;DHT22;8802;52.402;4.920;2022-10-23T10:21:51;18.20;96.60
17370;DHT22;8802;52.402;4.920;2022-10-23T10:24:25;18.20;96.60
17370;DHT22;8802;52.402;4.920;2022-10-23T10:27:00;18.20;96.60
17370;DHT22;8802;52.402;4.920;2022-10-23T10:29:44;18.20;96.50
17370;DHT22;8802;52.402;4.920;2022-10-23T10:32:26;18.20;96.50
17370;DHT22;8802;52.402;4.920;2022-10-23T10:35:03;18.30;96.50
17370;DHT22;8802;52.402;4.920;2022-10-23T10:37:39;18.20;96.60
17370;DHT22;8802;52.402;4.920;2022-10-23T10:40:12;18.30;96.50
17370;DHT22;8802;52.402;4.920;2022-10-23T10:42:54;18.30;96.50
17370;DHT22;8802;52.402;4.920;2022-10-23T10:45:32;18.30;96.50
17370;DHT22;8802;52.402;4.920;2022-10-23T10:48:13;18.30;96.50
17370;DHT22;8802;52.402;4.920;2022-10-23T10:50:46;18.30;96.40
17370;DHT22;8802;52.402;4.920;2022-10-23T10:53:19;18.30;96.40
17370;DHT22;8802;52.402;4.920;2022-10-23T10:55:50;18.40;96.40
17370;DHT22;8802;52.402;4.920;2022-10-23T10:58:22;18.40;96.40
17370;DHT22;8802;52.402;4.920;2022-10-23T11:00:54;18.40;96.50
17370;DHT22;8802;52.402;4.920;2022-10-23T11:03:27;18.40;96.40
17370;DHT22;8802;52.402;4.920;2022-10-23T11:05:57;18.40;96.40
17370;DHT22;8802;52.402;4.920;2022-10-23T11:08:31;18.40;96.40
17370;DHT22;8802;52.402;4.920;2022-10-23T11:11:04;18.50;96.40
17370;DHT22;8802;52.402;4.920;2022-10-23T11:13:35;18.50;96.30
17370;DHT22;8802;52.402;4.920;2022-10-23T11:16:08;18.50;96.60
17370;DHT22;8802;52.402;4.920;2022-10-23T11:18:40;18.50;96.30
17370;DHT22;8802;52.402;4.920;2022-10-23T11:21:21;18.60;96.30
17370;DHT22;8802;52.402;4.920;2022-10-23T11:24:17;18.60;96.30
17370;DHT22;8802;52.402;4.920;2022-10-23T11:27:01;18.60;96.10
17370;DHT22;8802;52.402;4.920;2022-10-23T11:29:51;18.70;96.20
17370;DHT22;8802;52.402;4.920;2022-10-23T11:32:34;18.70;96.10
17370;DHT22;8802;52.402;4.920;2022-10-23T11:35:20;18.70;96.20
17370;DHT22;8802;52.402;4.920;2022-10-23T11:37:59;18.70;96.10
17370;DHT22;8802;52.402;4.920;2022-10-23T11:40:33;18.80;96.10
17370;DHT22;8802;52.402;4.920;2022-10-23T11:43:00;18.80;96.10
17370;DHT22;8802;52.402;4.920;2022-10-23T11:45:30;18.90;96.00
17370;DHT22;8802;52.402;4.920;2022-10-23T11:47:59;18.90;96.00
17370;DHT22;8802;52.402;4.920;2022-10-23T11:50:30;18.90;96.00
17370;DHT22;8802;52.402;4.920;2022-10-23T11:53:00;19.00;95.90
17370;DHT22;8802;52.402;4.920;2022-10-23T11:55:30;19.00;95.90
17370;DHT22;8802;52.402;4.920;2022-10-23T11:58:20;19.00;95.80
17370;DHT22;8802;52.402;4.920;2022-10-23T12:00:55;19.10;95.80
17370;DHT22;8802;52.402;4.920;2022-10-23T12:03:27;19.10;95.70
17370;DHT22;8802;52.402;4.920;2022-10-23T12:06:01;19.10;95.80
17370;DHT22;8802;52.402;4.920;2022-10-23T12:08:32;19.20;95.80
17370;DHT22;8802;52.402;4.920;2022-10-23T12:10:59;19.20;95.60
17370;DHT22;8802;52.402;4.920;2022-10-23T12:13:42;19.20;95.70
17370;DHT22;8802;52.402;4.920;2022-10-23T12:16:09;19.30;95.60
17370;DHT22;8802;52.402;4.920;2022-10-23T12:18:45;19.30;95.50
17370;DHT22;8802;52.402;4.920;2022-10-23T12:21:18;19.30;95.40
17370;DHT22;8802;52.402;4.920;2022-10-23T12:23:55;19.30;95.40
17370;DHT22;8802;52.402;4.920;2022-10-23T12:26:40;19.30;95.80
17370;DHT22;8802;52.402;4.920;2022-10-23T12:29:15;19.40;95.30
17370;DHT22;8802;52.402;4.920;2022-10-23T12:31:49;19.40;95.20
17370;DHT22;8802;52.402;4.920;2022-10-23T12:34:35;19.50;95.20
17370;DHT22;8802;52.402;4.920;2022-10-23T12:37:23;19.50;95.10
17370;DHT22;8802;52.402;4.920;2022-10-23T12:39:54;19.50;95.10
17370;DHT22;8802;52.402;4.920;2022-10-23T12:42:22;19.60;95.10
17370;DHT22;8802;52.402;4.920;2022-10-23T12:44:57;19.60;95.00
17370;DHT22;8802;52.402;4.920;2022-10-23T12:47:24;19.60;95.30
17370;DHT22;8802;52.402;4.920;2022-10-23T12:49:51;19.70;95.00
17370;DHT22;8802;52.402;4.920;2022-10-23T12:52:20;19.70;95.00
17370;DHT22;8802;52.402;4.920;2022-10-23T12:54:49;19.70;94.90
17370;DHT22;8802;52.402;4.920;2022-10-23T12:57:19;19.70;94.80
17370;DHT22;8802;52.402;4.920;2022-10-23T12:59:47;19.80;94.70
17370;DHT22;8802;52.402;4.920;2022-10-23T13:02:21;19.80;94.80
17370;DHT22;8802;52.402;4.920;2022-10-23T13:04:49;19.80;95.10
17370;DHT22;8802;52.402;4.920;2022-10-23T13:07:19;19.90;94.80
17370;DHT22;8802;52.402;4.920;2022-10-23T13:09:47;19.80;94.80
17370;DHT22;8802;52.402;4.920;2022-10-23T13:12:18;19.90;94.60
17370;DHT22;8802;52.402;4.920;2022-10-23T13:14:58;19.90;94.50
17370;DHT22;8802;52.402;4.920;2022-10-23T13:17:36;20.00;94.60
17370;DHT22;8802;52.402;4.920;2022-10-23T13:20:24;20.00;94.60
17370;DHT22;8802;52.402;4.920;2022-10-23T13:22:58;20.00;94.50
17370;DHT22;8802;52.402;4.920;2022-10-23T13:25:27;20.10;94.60
17370;DHT22;8802;52.402;4.920;2022-10-23T13:30:57;20.20;94.40
17370;DHT22;8802;52.402;4.920;2022-10-23T13:33:26;20.20;94.30
17370;DHT22;8802;52.402;4.920;2022-10-23T13:35:57;20.30;94.30
17370;DHT22;8802;52.402;4.920;2022-10-23T13:38:30;20.30;94.10
17370;DHT22;8802;52.402;4.920;2022-10-23T13:40:58;20.40;93.90
17370;DHT22;8802;52.402;4.920;2022-10-23T13:43:26;20.40;94.00
17370;DHT22;8802;52.402;4.920;2022-10-23T13:45:55;20.40;94.00
17370;DHT22;8802;52.402;4.920;2022-10-23T13:48:22;20.40;94.00
17370;DHT22;8802;52.402;4.920;2022-10-23T13:50:49;20.40;94.30
17370;DHT22;8802;52.402;4.920;2022-10-23T13:53:15;20.50;93.80
17370;DHT22;8802;52.402;4.920;2022-10-23T13:55:46;20.50;93.70
17370;DHT22;8802;52.402;4.920;2022-10-23T13:58:13;20.50;93.60
17370;DHT22;8802;52.402;4.920;2022-10-23T14:00:40;20.60;93.60
17370;DHT22;8802;52.402;4.920;2022-10-23T14:03:08;20.60;93.60
17370;DHT22;8802;52.402;4.920;2022-10-23T14:05:35;20.60;93.60
17370;DHT22;8802;52.402;4.920;2022-10-23T14:08:02;20.70;93.60
17370;DHT22;8802;52.402;4.920;2022-10-23T14:10:29;20.70;93.60
17370;DHT22;8802;52.402;4.920;2022-10-23T14:12:57;20.70;93.60
17370;DHT22;8802;52.402;4.920;2022-10-23T14:15:24;20.60;93.40
17370;DHT22;8802;52.402;4.920;2022-10-23T14:17:51;20.70;93.40
17370;DHT22;8802;52.402;4.920;2022-10-23T14:20:18;20.80;93.30
17370;DHT22;8802;52.402;4.920;2022-10-23T14:22:44;20.70;93.30
17370;DHT22;8802;52.402;4.920;2022-10-23T14:25:11;20.80;93.40
17370;DHT22;8802;52.402;4.920;2022-10-23T14:27:38;20.80;93.30
17370;DHT22;8802;52.402;4.920;2022-10-23T14:30:08;20.80;93.20
17370;DHT22;8802;52.402;4.920;2022-10-23T14:32:35;20.80;93.10
17370;DHT22;8802;52.402;4.920;2022-10-23T14:35:02;20.80;93.20
17370;DHT22;8802;52.402;4.920;2022-10-23T14:37:29;20.80;93.10
17370;DHT22;8802;52.402;4.920;2022-10-23T14:39:56;20.80;93.10
17370;DHT22;8802;52.402;4.920;2022-10-23T14:42:23;20.80;93.00
17370;DHT22;8802;52.402;4.920;2022-10-23T14:44:50;20.80;93.10
17370;DHT22;8802;52.402;4.920;2022-10-23T14:47:18;20.80;93.10
17370;DHT22;8802;52.402;4.920;2022-10-23T14:49:47;20.80;93.10
17370;DHT22;8802;52.402;4.920;2022-10-23T14:52:15;20.80;93.40
17370;DHT22;8802;52.402;4.920;2022-10-23T14:54:42;20.80;93.00
17370;DHT22;8802;52.402;4.920;2022-10-23T14:57:09;20.80;93.00
17370;DHT22;8802;52.402;4.920;2022-10-23T14:59:36;20.80;93.10
17370;DHT22;8802;52.402;4.920;2022-10-23T15:02:03;20.90;93.10
17370;DHT22;8802;52.402;4.920;2022-10-23T15:04:31;20.90;93.20
17370;DHT22;8802;52.402;4.920;2022-10-23T15:06:58;20.80;93.10
17370;DHT22;8802;52.402;4.920;2022-10-23T15:09:25;20.80;93.10
17370;DHT22;8802;52.402;4.920;2022-10-23T15:11:52;20.90;93.10
17370;DHT22;8802;52.402;4.920;2022-10-23T15:14:18;20.90;93.10
17370;DHT22;8802;52.402;4.920;2022-10-23T15:16:45;20.80;93.00
17370;DHT22;8802;52.402;4.920;2022-10-23T15:19:13;20.90;93.00
17370;DHT22;8802;52.402;4.920;2022-10-23T15:21:42;20.90;93.00
17370;DHT22;8802;52.402;4.920;2022-10-23T15:24:09;20.80;93.10
17370;DHT22;8802;52.402;4.920;2022-10-23T15:26:36;20.80;93.00
17370;DHT22;8802;52.402;4.920;2022-10-23T15:29:03;20.80;93.00
17370;DHT22;8802;52.402;4.920;2022-10-23T15:31:40;20.80;93.00
17370;DHT22;8802;52.402;4.920;2022-10-23T15:34:08;20.80;93.00
17370;DHT22;8802;52.402;4.920;2022-10-23T15:36:35;20.80;93.00
17370;DHT22;8802;52.402;4.920;2022-10-23T15:39:06;20.80;93.10
17370;DHT22;8802;52.402;4.920;2022-10-23T15:41:34;20.80;92.90
17370;DHT22;8802;52.402;4.920;2022-10-23T15:44:03;20.80;93.10
17370;DHT22;8802;52.402;4.920;2022-10-23T15:46:30;20.80;93.00
17370;DHT22;8802;52.402;4.920;2022-10-23T15:48:57;20.80;93.10
17370;DHT22;8802;52.402;4.920;2022-10-23T15:51:24;20.80;93.10
17370;DHT22;8802;52.402;4.920;2022-10-23T15:53:51;20.80;93.10
17370;DHT22;8802;52.402;4.920;2022-10-23T15:56:19;20.80;93.00
17370;DHT22;8802;52.402;4.920;2022-10-23T15:58:46;20.80;93.10
17370;DHT22;8802;52.402;4.920;2022-10-23T16:01:13;20.80;93.10
17370;DHT22;8802;52.402;4.920;2022-10-23T16:03:40;20.80;93.20
17370;DHT22;8802;52.402;4.920;2022-10-23T16:06:08;20.80;93.20
17370;DHT22;8802;52.402;4.920;2022-10-23T16:08:36;20.80;93.10
17370;DHT22;8802;52.402;4.920;2022-10-23T16:11:04;20.80;93.20